CP5759 / N631CZ 7700 Squawk Report (12th of December, 2018)

Aircraft E175 Reg No. N631CZ Age N/A
Model Emb-175 Jet engines 2 First flight 08-08
Registered 31-01-10 Rollout 08-08 Delivered 05-09-08
Construction No. 17000239 Line No. N/A Series 200LR
ADSHEX A841BD Airline name Delta Connection Owner Compass Airlines
Airfield based Minneapolis-St.Paul Int'l~MN~N First tracked 2017-07-13 04:29:00

Flight history for N631CZ

Route Flight No Date Playback
Salt Lake City Intl (SLC) - Norman Y Mineta San Jose Intl (SJC) DL5827 2019-01-20 05:49:00
Calgary Intl (YYC) - Salt Lake City Intl (SLC) DL5849 2019-01-20 03:46:00
Salt Lake City Intl (SLC) - Calgary Intl (YYC) DL5848 2019-01-19 21:19:00
Rogue Valley Intl Medford (MFR) - Salt Lake City Intl (SLC) DL5806 2019-01-19 17:35:00
Salt Lake City Intl (SLC) - Rogue Valley Intl Medford (MFR) DL5782 2019-01-19 06:57:00
???? N/A 2019-01-19 05:34:00
Seattle Tacoma Intl (SEA) - Norman Y Mineta San Jose Intl (SJC) - Seattle Tacoma Intl (SEA) DL5712 2019-01-19 01:13:00
Calgary Intl (YYC) - Seattle Tacoma Intl (SEA) DL5761 2019-01-18 23:19:00
Seattle Tacoma Intl (SEA) - Calgary Intl (YYC) DL5762 2019-01-18 19:06:00
Kansas City Intl (MCI) - Seattle Tacoma Intl (SEA) DL5766 2019-01-18 17:41:00
Seattle Tacoma Intl (SEA) - Kansas City Intl (MCI) DL5788 2019-01-18 12:10:00
Seattle Tacoma Intl (SEA) - Spokane Intl (GEG) - Seattle Tacoma Intl (SEA) DL5703 2019-01-18 03:36:00
Vancouver Intl (YVR) - Seattle Tacoma Intl (SEA) DL5803 2019-01-17 23:13:00
Salt Lake City Intl (SLC) - Vancouver Intl (YVR) DL5765 2019-01-17 21:23:00
Long Beach (LGB) - Salt Lake City Intl (SLC) DL5741 2019-01-17 17:57:00
Salt Lake City Intl (SLC) - Long Beach (LGB) DL5807 2019-01-17 15:09:00
Salt Lake City Intl (SLC) - Missoula Intl (MSO) - Salt Lake City Intl (SLC) DL5739 2019-01-17 03:44:00
McCarran Intl (LAS) - Salt Lake City Intl (SLC) DL5732 2019-01-16 22:37:00
San Diego Intl (SAN) - McCarran Intl (LAS) DL5758 2019-01-16 20:54:00
Los Angeles Intl (LAX) - San Diego Intl (SAN) DL5786 2019-01-16 18:43:00
Time Lat Lon Altitude Heading Speed Vertical Rate
2018-12-12 07:11:12 GMT 47.442585 -122.304649 0 129 0 0
2018-12-12 07:11:03 GMT 47.442604 -122.304665 0 129 2 0
2018-12-12 07:10:51 GMT 47.442711 -122.304878 0 118 6 0
2018-12-12 07:10:42 GMT 47.442722 -122.305244 0 61 6 0
2018-12-12 07:10:31 GMT 47.442524 -122.305725 0 61 11 0
2018-12-12 07:10:19 GMT 47.442135 -122.306313 0 11 13 0
2018-12-12 07:10:08 GMT 47.441311 -122.306343 0 0 17 0
2018-12-12 07:09:58 GMT 47.440578 -122.306358 0 0 12 0
2018-12-12 07:09:44 GMT 47.439960 -122.306358 0 0 10 0
2018-12-12 07:09:35 GMT 47.439533 -122.306374 0 8 11 0
2018-12-12 07:09:27 GMT 47.439137 -122.306686 0 59 15 0
2018-12-12 07:09:16 GMT 47.439022 -122.307732 0 95 20 0
2018-12-12 07:09:03 GMT 47.439640 -122.309334 0 149 21 0
2018-12-12 07:08:54 GMT 47.440536 -122.310089 0 151 27 0
2018-12-12 07:08:43 GMT 47.441875 -122.311623 0 123 26 0
2018-12-12 07:08:29 GMT 47.442341 -122.313293 0 109 27 0
2018-12-12 07:08:19 GMT 47.443039 -122.314980 0 140 30 0
2018-12-12 07:08:08 GMT 47.444611 -122.316376 0 149 41 0
2018-12-12 07:07:55 GMT 47.446575 -122.317696 0 165 41 0
2018-12-12 07:07:47 GMT 47.448555 -122.317970 450 182 54 -64
2018-12-12 07:07:34 GMT 47.451534 -122.317970 450 180 67 -64
2018-12-12 07:07:25 GMT 47.455116 -122.317970 450 181 94 -128
2018-12-12 07:07:19 GMT 47.457779 -122.317932 450 180 108 -192
2018-12-12 07:07:15 GMT 47.460068 -122.317932 475 181 118 -256
2018-12-12 07:07:08 GMT 47.463497 -122.317902 525 180 120 -640
2018-12-12 07:07:03 GMT 47.466248 -122.317932 575 179 118 -704
2018-12-12 07:06:54 GMT 47.471600 -122.317902 700 180 117 -704
2018-12-12 07:06:47 GMT 47.474857 -122.317902 750 181 117 -640
2018-12-12 07:06:40 GMT 47.478745 -122.317863 875 181 115 -640
2018-12-12 07:06:37 GMT 47.480396 -122.317833 875 181 116 -576
2018-12-12 07:06:30 GMT 47.484493 -122.317833 925 179 116 -576
2018-12-12 07:06:22 GMT 47.488861 -122.317795 1,025 181 116 -576
2018-12-12 07:06:19 GMT 47.490219 -122.317764 1,050 182 115 -640
2018-12-12 07:06:15 GMT 47.491837 -122.317726 1,075 180 113 -704
2018-12-12 07:06:08 GMT 47.495682 -122.317726 1,150 179 114 -704
2018-12-12 07:06:01 GMT 47.499996 -122.317696 1,225 182 114 -448
2018-12-12 07:05:58 GMT 47.501064 -122.317619 1,300 182 112 -640
2018-12-12 07:05:55 GMT 47.503052 -122.317520 1,275 182 113 -640
2018-12-12 07:05:47 GMT 47.506840 -122.317482 1,475 181 117 -640
2018-12-12 07:05:43 GMT 47.508865 -122.317451 1,400 180 114 -768
2018-12-12 07:05:39 GMT 47.511120 -122.317413 1,450 180 116 -576
2018-12-12 07:05:36 GMT 47.513447 -122.317413 1,475 181 116 -640
2018-12-12 07:05:29 GMT 47.516556 -122.317314 1,550 181 119 -640
2018-12-12 07:05:23 GMT 47.519897 -122.317314 1,625 179 127 -704
2018-12-12 07:05:15 GMT 47.525040 -122.317268 1,725 181 134 -704
2018-12-12 07:05:11 GMT 47.526398 -122.317314 1,750 179 136 -768
2018-12-12 07:05:08 GMT 47.529465 -122.317314 1,825 180 140 -832
2018-12-12 07:05:03 GMT 47.531975 -122.317268 1,850 181 143 -768
2018-12-12 07:05:00 GMT 47.534351 -122.317268 1,925 179 149 -896
2018-12-12 07:04:54 GMT 47.538307 -122.317345 2,000 180 157 -832
2018-12-12 07:04:51 GMT 47.540497 -122.317383 2,025 179 159 -832
2018-12-12 07:04:44 GMT 47.546219 -122.317314 2,175 179 170 -960
2018-12-12 07:04:41 GMT 47.548691 -122.317383 2,175 180 173 -1024
2018-12-12 07:04:36 GMT 47.552505 -122.317345 2,275 180 180 -1088
2018-12-12 07:04:31 GMT 47.557209 -122.317345 2,375 180 181 -832
2018-12-12 07:04:27 GMT 47.560318 -122.317314 2,425 180 181 -896
2018-12-12 07:04:23 GMT 47.564072 -122.317314 2,475 180 181 -576
2018-12-12 07:04:19 GMT 47.566406 -122.317314 2,500 181 181 -768
2018-12-12 07:04:14 GMT 47.570435 -122.317245 2,575 181 181 -192
2018-12-12 07:04:09 GMT 47.575470 -122.317177 2,575 181 182 64
2018-12-12 07:04:04 GMT 47.583092 -122.317062 2,600 175 183 -576
2018-12-12 07:04:00 GMT 47.583092 -122.317062 2,600 179 183 -512
2018-12-12 07:03:57 GMT 47.584721 -122.317131 2,600 178 182 -576
2018-12-12 07:03:52 GMT 47.588772 -122.317482 2,675 172 183 -576
2018-12-12 07:03:49 GMT 47.591190 -122.317833 2,675 172 183 -576
2018-12-12 07:03:46 GMT 47.593643 -122.318481 2,725 168 183 -768
2018-12-12 07:03:43 GMT 47.597801 -122.320160 2,800 160 185 -768
2018-12-12 07:03:40 GMT 47.600037 -122.321426 2,850 153 188 -768
2018-12-12 07:03:37 GMT 47.602066 -122.322876 2,850 152 188 -768
2018-12-12 07:03:32 GMT 47.608646 -122.329597 2,925 138 194 -704
2018-12-12 07:03:28 GMT 47.608646 -122.329597 2,975 132 194 -704
2018-12-12 07:03:25 GMT 47.609665 -122.331322 2,975 129 195 -704
2018-12-12 07:03:21 GMT 47.611443 -122.335091 3,025 119 195 -640
2018-12-12 07:03:18 GMT 47.613098 -122.340729 3,050 105 197 -384
2018-12-12 07:03:15 GMT 47.613647 -122.343887 3,075 100 197 -64
2018-12-12 07:03:11 GMT 47.614002 -122.350655 3,050 87 197 64
2018-12-12 07:03:08 GMT 47.613739 -122.354530 3,075 79 198 -128
2018-12-12 07:03:05 GMT 47.613396 -122.357620 3,075 78 199 -64
2018-12-12 07:03:00 GMT 47.612373 -122.364525 3,075 77 200 0
2018-12-12 07:02:57 GMT 47.611675 -122.369385 3,075 77 201 0
2018-12-12 07:02:54 GMT 47.611301 -122.371986 3,075 77 202 0
2018-12-12 07:02:51 GMT 47.610558 -122.376846 3,075 77 203 0
2018-12-12 07:02:47 GMT 47.609711 -122.382614 3,075 77 205 64
2018-12-12 07:02:44 GMT 47.609116 -122.386528 3,075 77 205 64
2018-12-12 07:02:38 GMT 47.607903 -122.394455 3,075 77 205 64
2018-12-12 07:02:35 GMT 47.607147 -122.399094 3,075 77 204 64
2018-12-12 07:02:30 GMT 47.606133 -122.405937 3,075 77 206 -64
2018-12-12 07:02:26 GMT 47.605408 -122.411041 3,075 64 212 -64
2018-12-12 07:02:22 GMT 47.604645 -122.415939 3,075 77 208 -192
2018-12-12 07:02:17 GMT 47.603436 -122.423752 3,075 75 211 -64
2018-12-12 07:02:12 GMT 47.602177 -122.430374 3,075 71 213 0
2018-12-12 07:02:08 GMT 47.600548 -122.436356 3,075 63 212 -64
2018-12-12 07:02:05 GMT 47.599571 -122.438896 3,075 58 212 -64
2018-12-12 07:02:02 GMT 47.598171 -122.441711 3,075 25 207 -64
2018-12-12 07:01:58 GMT 47.594513 -122.447090 3,075 36 208 0
2018-12-12 07:01:51 GMT 47.588379 -122.451965 3,100 18 206 -320
2018-12-12 07:01:45 GMT 47.582298 -122.453613 3,175 6 204 -832
2018-12-12 07:01:40 GMT 47.578262 -122.453751 3,225 1 204 -896
2018-12-12 07:01:35 GMT 47.573364 -122.453888 3,325 1 203 -832
2018-12-12 07:01:29 GMT 47.568512 -122.454025 3,375 1 202 -896
2018-12-12 07:01:26 GMT 47.565029 -122.454178 3,450 1 201 -896
2018-12-12 07:01:23 GMT 47.562927 -122.454231 3,600 1 202 -960
2018-12-12 07:01:19 GMT 47.558697 -122.454315 3,525 1 201 -896
2018-12-12 07:01:15 GMT 47.556416 -122.454391 3,575 1 201 -960
2018-12-12 07:01:10 GMT 47.550133 -122.454529 3,675 1 204 -1024
2018-12-12 07:01:03 GMT 47.544125 -122.454742 3,875 1 206 -1024
2018-12-12 07:00:58 GMT 47.539051 -122.454880 3,875 1 205 -1088
2018-12-12 07:00:55 GMT 47.536972 -122.454987 3,900 1 205 -1024
2018-12-12 07:00:52 GMT 47.532898 -122.455124 3,975 1 206 -1088
2018-12-12 07:00:48 GMT 47.529053 -122.455261 4,050 1 206 -1024
2018-12-12 07:00:45 GMT 47.527084 -122.455330 4,075 1 206 -1024
2018-12-12 07:00:42 GMT 47.523651 -122.455399 4,150 1 207 -1024
2018-12-12 07:00:39 GMT 47.517059 -122.455467 4,225 0 209 -1472
2018-12-12 07:00:35 GMT 47.517059 -122.455467 4,275 0 210 -1536
2018-12-12 07:00:29 GMT 47.510750 -122.455513 4,575 0 212 -2176
2018-12-12 07:00:26 GMT 47.508087 -122.455467 4,600 0 212 -2176
2018-12-12 07:00:20 GMT 47.502274 -122.455467 4,800 0 214 -2304
2018-12-12 07:00:17 GMT 47.498833 -122.455513 4,925 0 216 -2304
2018-12-12 07:00:12 GMT 47.493027 -122.455536 5,150 0 217 -2560
2018-12-12 07:00:09 GMT 47.491791 -122.455536 5,925 0 214 -3136
2018-12-12 07:00:04 GMT 47.486572 -122.455536 5,450 0 217 -2752
2018-12-12 06:59:58 GMT 47.480350 -122.455513 5,725 0 217 -2752
2018-12-12 06:59:53 GMT 47.475357 -122.455536 5,975 0 216 -3072
2018-12-12 06:59:48 GMT 47.470551 -122.455536 6,225 0 214 -3136
2018-12-12 06:59:43 GMT 47.465313 -122.455513 6,525 0 211 -3392
2018-12-12 06:59:38 GMT 47.461357 -122.455444 6,750 0 209 -3264
2018-12-12 06:59:35 GMT 47.458656 -122.455444 6,900 0 208 -3008
2018-12-12 06:59:32 GMT 47.455212 -122.455444 7,100 0 206 -3136
2018-12-12 06:59:27 GMT 47.450089 -122.455467 7,350 0 206 -2368
2018-12-12 06:59:23 GMT 47.442764 -122.455467 7,600 0 211 -1600
2018-12-12 06:59:19 GMT 47.442764 -122.455467 7,600 0 211 -1600
2018-12-12 06:59:14 GMT 47.437428 -122.455444 7,750 0 216 -1088
2018-12-12 06:59:11 GMT 47.434433 -122.455467 7,750 0 216 -1024
2018-12-12 06:59:05 GMT 47.428631 -122.455444 7,850 0 221 -960
2018-12-12 06:59:00 GMT 47.423859 -122.455467 7,900 0 225 -768
2018-12-12 06:58:56 GMT 47.419552 -122.455513 8,000 0 230 -896
2018-12-12 06:58:53 GMT 47.415939 -122.455536 8,000 0 230 -896
2018-12-12 06:58:50 GMT 47.412708 -122.455582 8,050 0 232 -768
2018-12-12 06:58:47 GMT 47.408848 -122.455582 8,100 0 235 -1024
2018-12-12 06:58:41 GMT 47.401611 -122.455673 8,200 0 239 -1152
2018-12-12 06:58:36 GMT 47.398499 -122.455742 8,225 0 240 -1088
2018-12-12 06:58:29 GMT 47.386963 -122.455948 8,425 0 243 -1408
2018-12-12 06:58:26 GMT 47.386963 -122.455948 8,475 0 243 -1280
2018-12-12 06:58:23 GMT 47.382126 -122.456009 8,550 0 244 -1344
2018-12-12 06:58:20 GMT 47.379379 -122.456009 8,625 0 245 -1472
2018-12-12 06:58:16 GMT 47.374817 -122.455940 8,650 0 245 -1408
2018-12-12 06:58:13 GMT 47.371857 -122.455879 9,000 0 246 -1216
2018-12-12 06:58:08 GMT 47.365738 -122.455795 8,900 0 246 -1472
2018-12-12 06:58:05 GMT 47.361641 -122.455795 9,000 0 246 -1408
2018-12-12 06:58:00 GMT 47.356430 -122.455948 9,075 1 245 -768
2018-12-12 06:57:56 GMT 47.351532 -122.456154 9,125 2 245 -704
2018-12-12 06:57:49 GMT 47.344254 -122.456772 9,200 4 246 -896
2018-12-12 06:57:45 GMT 47.339390 -122.457413 9,275 5 247 -768
2018-12-12 06:57:35 GMT 47.327774 -122.459175 9,425 5 247 -896
2018-12-12 06:57:23 GMT 47.313927 -122.461220 9,575 5 247 -896
2018-12-12 06:57:14 GMT 47.303650 -122.462746 9,700 6 248 -832
2018-12-12 06:57:09 GMT 47.299263 -122.463470 9,750 5 249 -960
2018-12-12 06:57:02 GMT 47.290695 -122.464737 9,825 6 253 -768
2018-12-12 06:56:59 GMT 47.287445 -122.465286 9,900 6 256 -768
2018-12-12 06:56:56 GMT 47.283897 -122.465797 9,925 5 261 -896
2018-12-12 06:56:51 GMT 47.277466 -122.466797 10,000 5 262 -896
2018-12-12 06:56:48 GMT 47.273331 -122.467415 10,050 5 264 -896
2018-12-12 06:56:44 GMT 47.268353 -122.468193 10,125 5 268 -960
2018-12-12 06:56:40 GMT 47.265152 -122.468719 10,150 5 268 -960
2018-12-12 06:56:37 GMT 47.261414 -122.469246 10,250 5 270 -896
2018-12-12 06:56:33 GMT 47.254715 -122.470299 10,275 5 270 -960
2018-12-12 06:56:28 GMT 47.249031 -122.471146 10,350 5 271 -960
2018-12-12 06:56:21 GMT 47.239956 -122.472557 10,450 5 274 -960
2018-12-12 06:56:16 GMT 47.234207 -122.473389 10,625 5 276 -1088
2018-12-12 06:56:12 GMT 47.228268 -122.474251 10,600 5 276 -1088
2018-12-12 06:56:09 GMT 47.226360 -122.474602 10,625 5 276 -960
2018-12-12 06:56:04 GMT 47.219421 -122.475586 10,825 5 277 -960
2018-12-12 06:55:59 GMT 47.213001 -122.476501 10,775 5 279 -832
2018-12-12 06:55:56 GMT 47.208069 -122.477234 10,850 5 280 -1088
2018-12-12 06:55:51 GMT 47.201340 -122.478264 10,925 6 281 -768
2018-12-12 06:55:48 GMT 47.197453 -122.478966 10,950 6 281 -960
2018-12-12 06:55:44 GMT 47.193695 -122.479637 11,025 7 283 -1472
2018-12-12 06:55:40 GMT 47.186558 -122.480942 11,175 7 283 -1536
2018-12-12 06:55:37 GMT 47.184723 -122.481216 11,200 7 283 -1472
2018-12-12 06:55:26 GMT 47.170258 -122.483894 11,475 7 283 -1472
2018-12-12 06:55:16 GMT 47.145405 -122.488617 11,875 7 285 -1600
2018-12-12 06:55:08 GMT 47.141464 -122.489388 12,025 7 286 -1600
2018-12-12 06:54:56 GMT 47.129929 -122.491585 12,250 7 287 -1536
2018-12-12 06:54:46 GMT 47.117752 -122.493988 12,450 7 287 -1536
2018-12-12 06:54:42 GMT 47.112534 -122.494949 12,550 7 287 -1536
2018-12-12 06:54:34 GMT 47.101913 -122.496735 12,800 6 288 -1728
2018-12-12 06:54:24 GMT 47.087822 -122.499603 13,100 9 291 -1536
2018-12-12 06:54:16 GMT 47.077160 -122.502487 13,300 11 296 -1600
2018-12-12 06:54:12 GMT 47.073669 -122.503532 13,375 12 297 -1472
2018-12-12 06:54:02 GMT 47.059158 -122.509163 13,650 16 302 -1536
2018-12-12 06:53:52 GMT 47.044899 -122.515450 13,925 16 305 -1472
2018-12-12 06:53:44 GMT 47.034302 -122.520012 14,100 16 304 -448
2018-12-12 06:53:41 GMT 47.030796 -122.521576 14,100 16 304 -128
2018-12-12 06:53:35 GMT 47.020386 -122.526123 14,100 16 304 -64
2018-12-12 06:53:31 GMT 47.016224 -122.527985 14,100 16 304 -64
2018-12-12 06:53:22 GMT 47.003983 -122.533333 14,125 16 304 -64
2018-12-12 06:53:19 GMT 47.001984 -122.534225 14,125 16 303 -64
2018-12-12 06:53:09 GMT 46.987564 -122.540611 14,100 16 302 0
2018-12-12 06:53:06 GMT 46.984150 -122.542137 14,100 16 303 -64
2018-12-12 06:52:59 GMT 46.973816 -122.546715 14,100 16 303 -64
2018-12-12 06:52:47 GMT 46.959385 -122.553123 14,100 16 301 64
2018-12-12 06:52:43 GMT 46.953609 -122.555656 14,100 16 301 0
2018-12-12 06:52:38 GMT 46.944904 -122.559250 14,100 15 300 -64
2018-12-12 06:52:34 GMT 46.940063 -122.561150 14,100 15 300 -64
2018-12-12 06:52:29 GMT 46.933914 -122.563614 14,100 15 300 0
2018-12-12 06:52:26 GMT 46.930664 -122.564850 14,100 15 300 0
2018-12-12 06:52:20 GMT 46.922699 -122.568008 14,125 15 300 -64
2018-12-12 06:52:16 GMT 46.916153 -122.570549 14,125 15 300 -64
2018-12-12 06:52:12 GMT 46.912399 -122.572060 14,125 15 300 64
2018-12-12 06:52:06 GMT 46.901939 -122.576157 14,125 14 300 64
2018-12-12 06:52:03 GMT 46.898575 -122.577415 14,100 14 300 64
2018-12-12 06:51:55 GMT 46.888531 -122.581367 14,125 15 300 -64
2018-12-12 06:51:51 GMT 46.882370 -122.583801 14,100 15 300 64
2018-12-12 06:51:45 GMT 46.873764 -122.587234 14,100 15 305 -64
2018-12-12 06:51:40 GMT 46.869118 -122.589111 14,100 15 319 -64
2018-12-12 06:51:33 GMT 46.858887 -122.593155 14,100 15 319 -64
2018-12-12 06:51:23 GMT 46.843964 -122.599045 14,100 15 323 64
2018-12-12 06:51:12 GMT 46.826851 -122.605774 14,125 14 320 -64
2018-12-12 06:50:56 GMT 46.804039 -122.614700 14,050 15 316 960
2018-12-12 06:50:44 GMT 46.788483 -122.620819 13,950 15 318 0
2018-12-12 06:50:35 GMT 46.774200 -122.626381 13,950 14 317 64
2018-12-12 06:50:27 GMT 46.763725 -122.630493 13,950 15 317 64
2018-12-12 06:50:24 GMT 46.758652 -122.632484 13,950 15 317 64
2018-12-12 06:50:15 GMT 46.748409 -122.636536 13,950 15 318 -64
2018-12-12 06:50:12 GMT 46.743240 -122.638527 13,950 15 319 -64
2018-12-12 06:50:06 GMT 46.733650 -122.642303 13,950 15 319 -64
2018-12-12 06:50:01 GMT 46.727051 -122.644936 13,950 15 319 64
2018-12-12 06:49:54 GMT 46.717896 -122.648483 13,950 15 318 64
2018-12-12 06:49:51 GMT 46.711670 -122.650963 13,950 15 318 64
2018-12-12 06:49:43 GMT 46.702789 -122.654388 13,950 15 318 0
2018-12-12 06:49:39 GMT 46.697109 -122.656586 13,950 15 318 -64
2018-12-12 06:49:34 GMT 46.687984 -122.660225 13,950 15 319 64
2018-12-12 06:49:29 GMT 46.680489 -122.663177 13,950 15 318 128
2018-12-12 06:49:22 GMT 46.672527 -122.666267 13,950 15 318 64
2018-12-12 06:49:18 GMT 46.665985 -122.668854 13,950 14 318 0
2018-12-12 06:49:15 GMT 46.660355 -122.671059 13,950 14 318 0
2018-12-12 06:49:12 GMT 46.657425 -122.672134 13,950 14 316 64
2018-12-12 06:49:06 GMT 46.648647 -122.675606 13,950 14 315 64
2018-12-12 06:49:02 GMT 46.642502 -122.677940 13,950 14 316 64
2018-12-12 06:48:55 GMT 46.633472 -122.681442 13,950 14 314 64
2018-12-12 06:48:51 GMT 46.628082 -122.683525 13,950 14 314 64
2018-12-12 06:48:41 GMT 46.615173 -122.688477 13,950 14 313 64
2018-12-12 06:48:32 GMT 46.600140 -122.694283 13,950 15 315 64
2018-12-12 06:48:29 GMT 46.597347 -122.695381 13,950 15 315 -128
2018-12-12 06:48:19 GMT 46.582855 -122.700943 13,950 14 318 -64
2018-12-12 06:48:09 GMT 46.567383 -122.706833 13,950 14 321 0
2018-12-12 06:47:57 GMT 46.551773 -122.712799 13,950 14 325 -64
2018-12-12 06:47:53 GMT 46.544220 -122.715744 13,950 15 326 64
2018-12-12 06:47:48 GMT 46.537064 -122.718521 13,950 14 327 64
2018-12-12 06:47:37 GMT 46.521286 -122.723717 13,950 10 328 64
2018-12-12 06:47:32 GMT 46.512623 -122.725731 13,950 0 325 64
2018-12-12 06:47:25 GMT 46.504486 -122.727135 13,950 3 326 64
2018-12-12 06:47:19 GMT 46.495422 -122.728073 13,950 0 325 64
2018-12-12 06:47:16 GMT 46.488831 -122.728271 13,950 0 324 64
2018-12-12 06:47:11 GMT 46.480686 -122.728065 13,950 359 324 -128
2018-12-12 06:47:04 GMT 46.471985 -122.727806 13,950 359 324 -128
2018-12-12 06:46:56 GMT 46.460297 -122.727310 13,950 1 324 -384
2018-12-12 06:46:50 GMT 46.449326 -122.726929 13,950 359 320 64
2018-12-12 06:46:43 GMT 46.439487 -122.726555 13,950 359 319 -128
2018-12-12 06:46:32 GMT 46.425385 -122.726006 13,950 359 316 -64
2018-12-12 06:46:29 GMT 46.419250 -122.725792 13,950 359 314 64
2018-12-12 06:46:23 GMT 46.410206 -122.725388 13,950 359 314 64
2018-12-12 06:46:17 GMT 46.402760 -122.725113 13,950 359 314 64
2018-12-12 06:46:13 GMT 46.397781 -122.724922 13,950 359 314 64
2018-12-12 06:46:10 GMT 46.380981 -122.724251 13,950 0 319 64
2018-12-12 06:46:03 GMT 46.380981 -122.724251 13,950 359 313 0
2018-12-12 06:46:00 GMT 46.378971 -122.724152 13,950 359 313 64
2018-12-12 06:45:57 GMT 46.374222 -122.723946 13,950 359 314 -192
2018-12-12 06:45:51 GMT 46.364307 -122.723465 13,950 359 317 -64
2018-12-12 06:45:47 GMT 46.358486 -122.723190 13,950 358 318 -64
2018-12-12 06:45:40 GMT 46.347519 -122.722580 13,950 1 324 -384
2018-12-12 06:45:37 GMT 46.344986 -122.722435 13,950 0 319 64
2018-12-12 06:45:31 GMT 46.336098 -122.722092 13,950 0 324 384
2018-12-12 06:45:27 GMT 46.329803 -122.722038 13,950 0 319 -128
2018-12-12 06:45:19 GMT 46.316849 -122.722305 13,950 0 319 -64
2018-12-12 06:45:16 GMT 46.313564 -122.722366 13,950 0 318 -384
2018-12-12 06:45:10 GMT 46.305084 -122.722511 13,975 0 316 384
2018-12-12 06:45:07 GMT 46.301273 -122.722572 13,950 0 316 320
2018-12-12 06:44:57 GMT 46.285355 -122.722916 13,950 0 321 -64
2018-12-12 06:44:53 GMT 46.270065 -122.723244 13,950 0 324 448
2018-12-12 06:44:47 GMT 46.270065 -122.723244 13,950 0 323 0
2018-12-12 06:44:42 GMT 46.264404 -122.723396 13,950 0 323 -64
2018-12-12 06:44:36 GMT 46.254593 -122.723518 13,950 0 322 0
2018-12-12 06:44:32 GMT 46.248997 -122.723602 13,950 0 321 64
2018-12-12 06:44:25 GMT 46.237637 -122.723808 13,950 0 320 -192
2018-12-12 06:44:21 GMT 46.232620 -122.723915 13,975 0 319 64
2018-12-12 06:44:14 GMT 46.222000 -122.724182 13,950 0 318 128
2018-12-12 06:44:10 GMT 46.216827 -122.724251 13,950 0 318 64
2018-12-12 06:44:06 GMT 46.210499 -122.724358 13,950 0 318 -128
2018-12-12 06:44:02 GMT 46.202442 -122.724495 13,950 0 318 -64
2018-12-12 06:43:54 GMT 46.191376 -122.724724 13,950 0 317 64
2018-12-12 06:43:47 GMT 46.182587 -122.724854 13,950 0 317 64
2018-12-12 06:43:44 GMT 46.177460 -122.724922 13,950 0 316 64
2018-12-12 06:43:41 GMT 46.171646 -122.725060 13,950 0 316 -64
2018-12-12 06:43:38 GMT 46.169437 -122.725113 13,950 0 316 -192
2018-12-12 06:43:33 GMT 46.160641 -122.725250 13,975 0 318 64
2018-12-12 06:43:30 GMT 46.157150 -122.725319 13,975 0 317 -128
2018-12-12 06:43:24 GMT 46.148621 -122.725456 13,950 0 319 128
2018-12-12 06:43:20 GMT 46.140930 -122.725662 13,950 0 323 192
2018-12-12 06:43:16 GMT 46.136993 -122.725731 13,950 0 327 -64
2018-12-12 06:43:13 GMT 46.132755 -122.725868 13,950 0 333 0
2018-12-12 06:43:08 GMT 46.124142 -122.726006 13,950 0 336 0
2018-12-12 06:43:02 GMT 46.113190 -122.726196 13,950 0 341 -64
2018-12-12 06:42:59 GMT 46.109108 -122.726280 13,950 0 341 64
2018-12-12 06:42:55 GMT 46.104355 -122.726395 13,950 0 341 64
2018-12-12 06:42:50 GMT 46.097191 -122.726555 13,950 0 340 64
2018-12-12 06:42:47 GMT 46.092361 -122.726662 13,950 0 340 64
2018-12-12 06:42:44 GMT 46.087040 -122.726761 13,950 0 340 0
2018-12-12 06:42:41 GMT 46.080757 -122.726898 13,950 0 340 0
2018-12-12 06:42:37 GMT 46.073818 -122.726967 13,950 0 340 -128
2018-12-12 06:42:34 GMT 46.070702 -122.727036 13,950 0 340 -64
2018-12-12 06:42:28 GMT 46.061253 -122.727242 13,950 0 340 64
2018-12-12 06:42:20 GMT 46.049335 -122.727448 13,950 0 340 -128
2018-12-12 06:42:17 GMT 46.043144 -122.727585 13,950 0 340 64
2018-12-12 06:42:12 GMT 46.034546 -122.727737 13,950 0 340 -64
2018-12-12 06:42:09 GMT 46.029827 -122.727859 13,950 0 340 -64
2018-12-12 06:42:03 GMT 46.016235 -122.728142 13,950 0 342 -128
2018-12-12 06:41:59 GMT 46.016235 -122.728142 13,950 0 341 -128
2018-12-12 06:41:54 GMT 46.006119 -122.728340 13,975 0 342 0
2018-12-12 06:41:51 GMT 46.003296 -122.728409 13,950 0 343 64
2018-12-12 06:41:48 GMT 45.999252 -122.728470 13,950 0 344 0
2018-12-12 06:41:45 GMT 45.994080 -122.728539 13,950 0 345 64
2018-12-12 06:41:42 GMT 45.988358 -122.728676 13,950 0 345 0
2018-12-12 06:41:35 GMT 45.975876 -122.728889 13,950 0 347 64
2018-12-12 06:41:27 GMT 45.963364 -122.729141 13,950 0 348 0
2018-12-12 06:41:24 GMT 45.959473 -122.729210 13,950 0 349 64
2018-12-12 06:41:17 GMT 45.947571 -122.729439 13,950 0 350 64
2018-12-12 06:41:14 GMT 45.938095 -122.729675 13,950 0 350 0
2018-12-12 06:41:08 GMT 45.934937 -122.729675 13,950 0 351 0
2018-12-12 06:41:04 GMT 45.926064 -122.729919 13,950 0 351 64
2018-12-12 06:41:01 GMT 45.922199 -122.729988 13,950 0 351 64
2018-12-12 06:40:55 GMT 45.911453 -122.730217 13,950 0 352 64
2018-12-12 06:40:51 GMT 45.900421 -122.730415 13,950 0 351 -64
2018-12-12 06:40:47 GMT 45.900421 -122.730415 13,950 0 349 0
2018-12-12 06:40:43 GMT 45.891403 -122.730553 13,950 0 343 192
2018-12-12 06:40:36 GMT 45.883003 -122.730675 13,950 0 340 192
2018-12-12 06:40:32 GMT 45.875973 -122.730881 13,925 0 340 320
2018-12-12 06:40:29 GMT 45.871262 -122.730949 13,925 0 340 320
2018-12-12 06:40:25 GMT 45.866058 -122.731018 13,875 0 339 896
2018-12-12 06:40:22 GMT 45.858719 -122.731216 13,875 0 339 896
2018-12-12 06:40:18 GMT 45.854748 -122.731293 13,825 0 338 1280
2018-12-12 06:40:12 GMT 45.845295 -122.731430 13,625 0 336 2048
2018-12-12 06:40:09 GMT 45.838497 -122.731567 13,425 0 334 2688
2018-12-12 06:40:00 GMT 45.825256 -122.731819 13,100 0 331 2816
2018-12-12 06:39:57 GMT 45.822189 -122.731888 12,925 0 330 2816
2018-12-12 06:39:51 GMT 45.812756 -122.732048 12,625 0 329 2944
2018-12-12 06:39:48 GMT 45.806705 -122.732185 12,425 0 328 2944
2018-12-12 06:39:39 GMT 45.794041 -122.732460 11,925 0 326 2816
2018-12-12 06:39:36 GMT 45.790695 -122.732559 11,900 0 326 2816
2018-12-12 06:39:29 GMT 45.778107 -122.732826 11,625 0 323 2112
2018-12-12 06:39:26 GMT 45.775375 -122.732872 11,575 0 322 2048
2018-12-12 06:39:19 GMT 45.764107 -122.733147 11,300 0 318 1600
2018-12-12 06:39:16 GMT 45.760014 -122.733215 11,225 0 316 1536
2018-12-12 06:39:09 GMT 45.748466 -122.733490 11,050 0 305 768
2018-12-12 06:39:05 GMT 45.744511 -122.733559 11,025 0 302 576
2018-12-12 06:38:58 GMT 45.733292 -122.733696 10,950 0 286 1088
2018-12-12 06:38:54 GMT 45.730133 -122.733765 10,950 0 285 1152
2018-12-12 06:38:47 GMT 45.718964 -122.733963 10,675 0 273 2816
2018-12-12 06:38:44 GMT 45.716446 -122.733963 10,475 0 270 3392
2018-12-12 06:38:37 GMT 45.707127 -122.734177 10,025 0 268 3840
2018-12-12 06:38:33 GMT 45.703400 -122.734299 9,825 0 268 3776
2018-12-12 06:38:26 GMT 45.694233 -122.734520 9,250 1 265 3584
2018-12-12 06:38:16 GMT 45.680595 -122.734932 8,625 356 259 3904
2018-12-12 06:38:13 GMT 45.678314 -122.735039 8,575 1 263 3904
2018-12-12 06:38:05 GMT 45.668861 -122.735207 8,075 359 262 3904
2018-12-12 06:38:02 GMT 45.664997 -122.734932 7,850 355 259 3840
2018-12-12 06:37:55 GMT 45.655781 -122.731979 7,250 340 251 3904
2018-12-12 06:37:51 GMT 45.653221 -122.730469 7,225 336 249 3840
2018-12-12 06:37:44 GMT 45.645634 -122.723328 6,725 315 240 3776
2018-12-12 06:37:41 GMT 45.643772 -122.720856 6,575 315 240 3776
2018-12-12 06:37:34 GMT 45.638351 -122.710518 5,850 299 236 3904
2018-12-12 06:37:31 GMT 45.637299 -122.707840 5,925 298 235 3968
2018-12-12 06:37:21 GMT 45.632034 -122.693436 5,225 298 233 3840
2018-12-12 06:37:13 GMT 45.627850 -122.681854 4,700 298 230 3776
2018-12-12 06:37:10 GMT 45.626873 -122.678970 4,575 298 228 3776
2018-12-12 06:36:59 GMT 45.621643 -122.664299 3,925 297 223 3072
2018-12-12 06:36:52 GMT 45.618164 -122.654449 3,575 297 214 2432
2018-12-12 06:36:49 GMT 45.616928 -122.650902 3,500 297 210 2112
2018-12-12 06:36:41 GMT 45.613266 -122.640785 3,200 298 196 2368
2018-12-12 06:36:38 GMT 45.612347 -122.638321 3,125 298 192 2624
2018-12-12 06:36:31 GMT 45.609146 -122.629799 2,525 300 170 1792
2018-12-12 06:36:28 GMT 45.608067 -122.627060 2,575 299 180 3328
2018-12-12 06:36:19 GMT 45.604980 -122.619080 2,150 300 172 1920
2018-12-12 06:36:15 GMT 45.603363 -122.614975 2,125 300 167 1792
2018-12-12 06:36:10 GMT 45.600945 -122.609070 1,900 301 153 2304
2018-12-12 06:36:06 GMT 45.599777 -122.606323 1,800 302 149 2112
2018-12-12 06:35:58 GMT 45.597382 -122.600723 1,550 302 137 2624
We lost coverage of the aircraft here for a total of 239 minutes
2018-12-12 02:36:35 GMT 45.579758 -122.581833 200 300 129 -832
2018-12-12 02:36:28 GMT 45.577106 -122.575218 300 299 126 -512
2018-12-12 02:36:15 GMT 45.573662 -122.566566 425 300 127 -704
2018-12-12 02:36:08 GMT 45.571884 -122.561935 500 299 127 -768
2018-12-12 02:36:05 GMT 45.570877 -122.559326 550 300 127 -832
2018-12-12 02:36:00 GMT 45.569275 -122.555168 625 300 127 -640
2018-12-12 02:35:56 GMT 45.568169 -122.552422 675 300 127 -768
2018-12-12 02:35:51 GMT 45.566914 -122.549194 725 299 126 -640
2018-12-12 02:35:48 GMT 45.566261 -122.547409 750 300 125 -512
2018-12-12 02:35:45 GMT 45.565098 -122.544525 775 300 126 -640
2018-12-12 02:35:41 GMT 45.563843 -122.541298 825 300 125 -832
2018-12-12 02:35:34 GMT 45.562225 -122.537086 1,000 300 124 -704
2018-12-12 02:35:29 GMT 45.560677 -122.533195 1,000 300 124 -896
2018-12-12 02:35:21 GMT 45.558151 -122.526695 1,075 300 125 -576
2018-12-12 02:35:17 GMT 45.557144 -122.524086 1,125 300 125 -640
2018-12-12 02:35:14 GMT 45.556137 -122.521538 1,150 300 126 -640
2018-12-12 02:35:09 GMT 45.554993 -122.518661 1,200 300 122 -704
2018-12-12 02:35:05 GMT 45.554066 -122.516235 1,225 299 122 -832
2018-12-12 02:34:56 GMT 45.551319 -122.509300 1,375 299 119 -640
2018-12-12 02:34:52 GMT 45.550247 -122.506554 1,400 299 119 -448
2018-12-12 02:34:49 GMT 45.549316 -122.504189 1,425 300 120 -448
2018-12-12 02:34:45 GMT 45.548431 -122.501884 1,450 300 119 -640
2018-12-12 02:34:41 GMT 45.547359 -122.499069 1,500 299 119 -448
2018-12-12 02:34:35 GMT 45.545563 -122.494484 1,550 299 122 -704
2018-12-12 02:34:31 GMT 45.544754 -122.492401 1,575 300 122 -768
2018-12-12 02:34:27 GMT 45.543545 -122.489319 1,625 300 124 -704
2018-12-12 02:34:24 GMT 45.542679 -122.487099 1,650 300 127 -704
2018-12-12 02:34:21 GMT 45.541588 -122.484360 1,700 300 129 -768
2018-12-12 02:34:16 GMT 45.540283 -122.481010 1,775 300 134 -832
2018-12-12 02:34:13 GMT 45.539474 -122.478989 1,800 300 135 -832
2018-12-12 02:34:09 GMT 45.538422 -122.476326 1,850 300 138 -832
2018-12-12 02:34:03 GMT 45.536087 -122.470291 1,925 299 145 -640
2018-12-12 02:33:59 GMT 45.535118 -122.467812 1,975 299 148 -704
2018-12-12 02:33:52 GMT 45.532696 -122.461586 2,050 299 153 -704
2018-12-12 02:33:49 GMT 45.531509 -122.458519 2,100 299 155 -768
2018-12-12 02:33:45 GMT 45.529903 -122.454414 2,150 300 155 -704
2018-12-12 02:33:41 GMT 45.528854 -122.451714 2,175 300 156 -512
2018-12-12 02:33:38 GMT 45.527756 -122.448837 2,200 299 157 -384
2018-12-12 02:33:34 GMT 45.526413 -122.445374 2,225 299 157 -320
2018-12-12 02:33:28 GMT 45.524086 -122.439278 2,275 299 153 -448
2018-12-12 02:33:24 GMT 45.522766 -122.435890 2,375 300 155 -704
2018-12-12 02:33:17 GMT 45.520294 -122.429482 2,350 300 155 -704
2018-12-12 02:33:12 GMT 45.518555 -122.425102 2,425 300 161 -704
2018-12-12 02:33:09 GMT 45.517429 -122.422333 2,450 299 163 -512
2018-12-12 02:33:05 GMT 45.516544 -122.419983 2,500 299 166 -576
2018-12-12 02:33:02 GMT 45.515102 -122.416100 2,525 299 169 -832
2018-12-12 02:32:59 GMT 45.513840 -122.412804 2,575 299 172 -768
2018-12-12 02:32:55 GMT 45.512356 -122.408997 2,625 299 173 -832
2018-12-12 02:32:52 GMT 45.511047 -122.405617 2,675 299 175 -768
2018-12-12 02:32:48 GMT 45.509701 -122.402100 2,700 299 178 -896
2018-12-12 02:32:44 GMT 45.508259 -122.398415 2,750 300 180 -832
2018-12-12 02:32:40 GMT 45.506836 -122.394890 2,800 300 185 -832
2018-12-12 02:32:37 GMT 45.504906 -122.390038 2,850 300 186 -896
2018-12-12 02:32:34 GMT 45.503880 -122.387497 2,900 301 188 -896
2018-12-12 02:32:30 GMT 45.502159 -122.383209 3,000 301 191 -1024
2018-12-12 02:32:24 GMT 45.499039 -122.375771 3,075 301 193 -1152
2018-12-12 02:32:20 GMT 45.497456 -122.371750 3,125 300 195 -1152
2018-12-12 02:32:16 GMT 45.495922 -122.367729 3,225 297 194 -896
2018-12-12 02:32:13 GMT 45.494476 -122.363647 3,250 294 194 -832
2018-12-12 02:32:09 GMT 45.493313 -122.359764 3,300 290 194 -896
2018-12-12 02:32:04 GMT 45.491825 -122.352928 3,400 285 193 -960
2018-12-12 02:31:59 GMT 45.490940 -122.346428 3,475 279 193 -1024
2018-12-12 02:31:52 GMT 45.490082 -122.337601 3,600 279 193 -1024
2018-12-12 02:31:48 GMT 45.489624 -122.333153 3,675 279 195 -1152
2018-12-12 02:31:45 GMT 45.489170 -122.328743 3,725 279 196 -1152
2018-12-12 02:31:41 GMT 45.488708 -122.323868 3,800 278 195 -1024
2018-12-12 02:31:37 GMT 45.488285 -122.319504 3,850 278 196 -1024
2018-12-12 02:31:33 GMT 45.487839 -122.314651 3,925 277 197 -1216
2018-12-12 02:31:27 GMT 45.487167 -122.305702 4,050 275 198 -960
2018-12-12 02:31:20 GMT 45.486877 -122.296402 4,175 270 201 -1280
2018-12-12 02:31:13 GMT 45.487152 -122.287445 4,300 267 202 -1024
2018-12-12 02:31:08 GMT 45.487381 -122.282150 4,375 267 202 -1088
2018-12-12 02:31:05 GMT 45.487587 -122.277565 4,425 267 204 -1280
2018-12-12 02:31:02 GMT 45.487793 -122.273582 4,500 267 205 -1152
2018-12-12 02:30:58 GMT 45.488052 -122.267921 4,575 267 206 -1152
2018-12-12 02:30:55 GMT 45.488251 -122.263313 4,625 266 206 -1216
2018-12-12 02:30:48 GMT 45.488846 -122.254028 4,750 263 208 -1152
2018-12-12 02:30:43 GMT 45.489449 -122.248360 4,825 258 209 -1088
2018-12-12 02:30:40 GMT 45.490379 -122.243065 4,900 254 210 -1152
2018-12-12 02:30:37 GMT 45.491173 -122.239784 4,950 250 212 -1152
2018-12-12 02:30:32 GMT 45.492989 -122.233620 5,050 246 214 -1216
2018-12-12 02:30:29 GMT 45.494247 -122.229767 5,100 245 214 -1152
2018-12-12 02:30:23 GMT 45.497314 -122.220543 5,250 245 216 -1088
2018-12-12 02:30:16 GMT 45.500198 -122.211784 5,400 246 215 -768
2018-12-12 02:30:11 GMT 45.501617 -122.207268 5,450 246 215 -1408
2018-12-12 02:30:08 GMT 45.503311 -122.202103 5,600 246 215 -768
2018-12-12 02:30:04 GMT 45.504501 -122.198380 5,600 246 215 -1088
2018-12-12 02:30:01 GMT 45.505966 -122.193733 5,650 246 214 -1088
2018-12-12 02:29:57 GMT 45.507614 -122.188698 5,725 246 214 -1216
2018-12-12 02:29:54 GMT 45.509003 -122.184380 5,775 246 214 -704
2018-12-12 02:29:51 GMT 45.510490 -122.179756 5,800 245 214 -64
2018-12-12 02:29:44 GMT 45.513237 -122.171455 5,800 245 213 -64
2018-12-12 02:29:40 GMT 45.514729 -122.166901 5,800 245 213 0
2018-12-12 02:29:37 GMT 45.516220 -122.162544 5,800 244 213 -64
2018-12-12 02:29:30 GMT 45.519711 -122.152832 5,825 233 215 64
2018-12-12 02:29:26 GMT 45.521255 -122.149269 5,825 237 213 -128
2018-12-12 02:29:19 GMT 45.526039 -122.140640 5,825 226 217 -64
2018-12-12 02:29:16 GMT 45.528370 -122.137489 5,825 222 217 64
2018-12-12 02:29:11 GMT 45.531738 -122.133705 5,825 211 221 64
2018-12-12 02:29:05 GMT 45.538467 -122.128403 5,825 204 224 -128
2018-12-12 02:28:58 GMT 45.544197 -122.125496 5,825 195 228 192
2018-12-12 02:28:53 GMT 45.548630 -122.124161 5,825 189 232 0
2018-12-12 02:28:50 GMT 45.551830 -122.123543 5,825 185 234 -128
2018-12-12 02:28:46 GMT 45.555542 -122.123283 5,825 181 237 64
2018-12-12 02:28:43 GMT 45.560394 -122.123283 5,800 178 238 128
2018-12-12 02:28:40 GMT 45.563919 -122.123421 5,825 178 239 0
2018-12-12 02:28:35 GMT 45.567902 -122.123619 5,825 178 239 -64
2018-12-12 02:28:32 GMT 45.572544 -122.123749 5,825 178 239 -192
2018-12-12 02:28:28 GMT 45.575455 -122.123886 5,825 178 240 128
2018-12-12 02:28:23 GMT 45.582741 -122.124229 5,825 177 240 -64
2018-12-12 02:28:18 GMT 45.587212 -122.124435 5,825 177 241 -64
2018-12-12 02:28:15 GMT 45.591633 -122.124710 5,825 177 242 0
2018-12-12 02:28:12 GMT 45.595264 -122.124916 5,825 177 242 0
2018-12-12 02:28:07 GMT 45.600197 -122.125191 5,825 177 243 64
2018-12-12 02:28:04 GMT 45.602898 -122.125328 5,825 177 243 128
2018-12-12 02:28:01 GMT 45.607368 -122.125671 5,825 177 244 64
2018-12-12 02:27:54 GMT 45.615280 -122.126167 5,825 177 245 -64
2018-12-12 02:27:49 GMT 45.619720 -122.126503 5,825 177 246 64
2018-12-12 02:27:46 GMT 45.623707 -122.126770 5,825 177 246 0
2018-12-12 02:27:43 GMT 45.627136 -122.126968 5,825 177 247 -64
2018-12-12 02:27:40 GMT 45.631435 -122.127182 5,825 177 247 0
2018-12-12 02:27:32 GMT 45.639256 -122.127663 5,825 177 249 -64
2018-12-12 02:27:29 GMT 45.643204 -122.127846 5,825 177 249 64
2018-12-12 02:27:22 GMT 45.650986 -122.128242 5,825 177 250 -128
2018-12-12 02:27:18 GMT 45.655563 -122.128510 5,825 177 249 -128
2018-12-12 02:27:13 GMT 45.660645 -122.128716 5,825 177 249 -64
2018-12-12 02:27:08 GMT 45.668350 -122.129173 5,825 177 250 64
2018-12-12 02:27:02 GMT 45.675064 -122.129654 5,825 177 250 64
2018-12-12 02:26:57 GMT 45.680824 -122.130135 5,825 177 249 0
2018-12-12 02:26:51 GMT 45.685947 -122.130478 5,800 177 248 64
2018-12-12 02:26:46 GMT 45.692551 -122.130859 5,800 178 247 -192
2018-12-12 02:26:41 GMT 45.697632 -122.131126 5,825 178 244 -192
2018-12-12 02:26:36 GMT 45.704819 -122.131393 5,825 178 243 64
2018-12-12 02:26:25 GMT 45.716393 -122.131577 5,800 179 249 -192
2018-12-12 02:26:17 GMT 45.726074 -122.131645 5,800 181 256 576
2018-12-12 02:26:14 GMT 45.729008 -122.131577 5,800 181 258 -64
2018-12-12 02:26:04 GMT 45.742462 -122.130890 5,825 184 266 -128
2018-12-12 02:25:53 GMT 45.755356 -122.130203 5,825 182 270 -64
2018-12-12 02:25:41 GMT 45.769180 -122.130318 5,825 176 273 64
2018-12-12 02:25:32 GMT 45.782364 -122.133667 5,800 159 283 -128
2018-12-12 02:25:21 GMT 45.795017 -122.144142 5,825 140 293 320
2018-12-12 02:25:13 GMT 45.802185 -122.155174 5,800 126 296 -128
2018-12-12 02:25:00 GMT 45.812073 -122.176208 5,825 123 297 -64
2018-12-12 02:24:51 GMT 45.818756 -122.190681 5,800 123 297 64
2018-12-12 02:24:41 GMT 45.826393 -122.207451 5,825 122 295 -128
2018-12-12 02:24:38 GMT 45.828369 -122.211716 5,825 123 297 -128
2018-12-12 02:24:31 GMT 45.833450 -122.222900 5,850 123 298 -448
2018-12-12 02:24:28 GMT 45.836472 -122.229530 5,875 123 297 -640
2018-12-12 02:24:19 GMT 45.842407 -122.242401 5,950 123 299 -640
2018-12-12 02:24:16 GMT 45.844460 -122.246933 5,975 123 299 -640
2018-12-12 02:24:07 GMT 45.852467 -122.264168 6,075 123 300 -640
2018-12-12 02:23:59 GMT 45.858856 -122.277832 6,125 124 300 -64
2018-12-12 02:23:56 GMT 45.860641 -122.281586 6,125 124 300 -64
2018-12-12 02:23:44 GMT 45.869247 -122.299400 6,125 125 298 -192
2018-12-12 02:23:34 GMT 45.877743 -122.316284 6,325 125 292 -1600
2018-12-12 02:23:27 GMT 45.883793 -122.328232 6,550 125 291 -1600
2018-12-12 02:23:24 GMT 45.886139 -122.332901 6,575 125 289 -704
2018-12-12 02:23:15 GMT 45.892685 -122.345963 6,900 125 289 -1856
2018-12-12 02:23:12 GMT 45.894516 -122.349709 6,825 125 289 -1920
2018-12-12 02:23:09 GMT 45.898041 -122.356796 6,950 125 289 -1536
2018-12-12 02:23:05 GMT 45.901157 -122.363182 7,075 125 289 -1536
2018-12-12 02:23:02 GMT 45.902847 -122.366661 7,125 125 289 -1472
2018-12-12 02:22:55 GMT 45.908112 -122.377380 7,275 125 291 -1472
2018-12-12 02:22:52 GMT 45.910748 -122.382683 7,350 125 292 -1472
2018-12-12 02:22:48 GMT 45.914291 -122.389977 7,475 125 292 -1472
2018-12-12 02:22:42 GMT 45.918961 -122.399551 7,625 124 293 -1472
2018-12-12 02:22:35 GMT 45.924435 -122.410767 7,800 124 295 -1536
2018-12-12 02:22:30 GMT 45.927979 -122.418175 7,900 124 295 -1536
2018-12-12 02:22:23 GMT 45.933289 -122.428963 8,300 133 295 -1536
2018-12-12 02:22:20 GMT 45.936172 -122.434654 8,175 127 296 -1472
2018-12-12 02:22:12 GMT 45.942902 -122.446243 8,375 135 294 -1536
2018-12-12 02:22:09 GMT 45.945568 -122.449631 8,425 141 293 -1472
2018-12-12 02:21:59 GMT 45.957779 -122.459709 8,675 161 286 -1472
2018-12-12 02:21:51 GMT 45.966236 -122.462608 8,850 173 280 -1408
2018-12-12 02:21:48 GMT 45.971313 -122.463020 8,950 182 278 -1408
2018-12-12 02:21:43 GMT 45.977737 -122.462120 9,050 193 274 -1472
2018-12-12 02:21:40 GMT 45.980019 -122.461372 9,150 198 271 -1344
2018-12-12 02:21:37 GMT 45.984604 -122.459373 9,200 200 271 -1344
2018-12-12 02:21:31 GMT 45.993332 -122.454781 9,350 201 271 -1536
2018-12-12 02:21:28 GMT 45.998501 -122.451965 9,450 201 272 -1408
2018-12-12 02:21:25 GMT 45.998501 -122.451965 9,475 201 272 -1408
2018-12-12 02:21:19 GMT 46.006039 -122.447914 9,700 201 273 -1600
2018-12-12 02:21:15 GMT 46.011475 -122.444969 9,750 201 273 -1344
2018-12-12 02:21:11 GMT 46.019531 -122.440620 9,850 201 272 -1408
2018-12-12 02:21:07 GMT 46.019531 -122.440620 9,900 201 272 -1472
2018-12-12 02:21:04 GMT 46.022984 -122.438782 9,950 201 272 -1536
2018-12-12 02:20:59 GMT 46.031086 -122.434387 10,150 201 271 -1152
2018-12-12 02:20:54 GMT 46.035229 -122.432121 10,225 201 271 -1216
2018-12-12 02:20:50 GMT 46.040268 -122.429428 10,325 201 271 -1536
2018-12-12 02:20:46 GMT 46.045303 -122.426750 10,425 201 270 -1472
2018-12-12 02:20:43 GMT 46.047520 -122.425529 10,475 201 270 -1472
2018-12-12 02:20:36 GMT 46.056873 -122.420517 10,625 201 269 -1344
2018-12-12 02:20:32 GMT 46.060410 -122.418579 10,725 201 269 -1600
2018-12-12 02:20:25 GMT 46.068466 -122.414268 10,925 201 269 -1344
2018-12-12 02:20:21 GMT 46.073215 -122.411728 11,000 201 269 -1472
2018-12-12 02:20:15 GMT 46.082153 -122.406921 11,175 202 270 -1472
2018-12-12 02:20:11 GMT 46.084717 -122.405518 11,225 202 270 -1600
2018-12-12 02:20:05 GMT 46.093002 -122.400894 11,400 202 270 -1344
2018-12-12 02:20:00 GMT 46.097717 -122.398277 11,500 202 270 -1408
2018-12-12 02:19:54 GMT 46.104767 -122.394394 11,650 202 267 -1408
2018-12-12 02:19:50 GMT 46.109943 -122.391541 11,750 202 266 -1472
2018-12-12 02:19:45 GMT 46.117393 -122.387352 11,900 202 265 -1408
2018-12-12 02:19:39 GMT 46.122070 -122.384750 12,000 202 264 -1536
2018-12-12 02:19:29 GMT 46.133781 -122.378151 12,250 202 263 -1344
2018-12-12 02:19:18 GMT 46.145977 -122.371353 12,475 202 261 -1408
2018-12-12 02:19:07 GMT 46.158279 -122.364517 12,750 202 260 -1408
2018-12-12 02:18:57 GMT 46.169765 -122.358101 12,975 202 257 -1344
2018-12-12 02:18:53 GMT 46.173981 -122.355743 13,050 202 257 -1408
2018-12-12 02:18:46 GMT 46.181396 -122.351585 13,200 202 257 -1344
2018-12-12 02:18:35 GMT 46.193600 -122.344780 13,450 202 257 -1344
2018-12-12 02:18:25 GMT 46.205475 -122.338188 13,700 202 261 -1472
2018-12-12 02:18:14 GMT 46.217575 -122.331459 13,950 202 265 -1600
2018-12-12 02:18:04 GMT 46.229397 -122.324867 14,300 202 267 -2176
2018-12-12 02:17:53 GMT 46.242188 -122.317894 14,675 199 270 -2176
2018-12-12 02:17:47 GMT 46.249466 -122.314674 14,900 193 276 -2240
2018-12-12 02:17:40 GMT 46.259190 -122.311478 15,200 190 280 -2240
2018-12-12 02:17:32 GMT 46.268036 -122.309830 15,700 179 293 -2304
2018-12-12 02:17:23 GMT 46.280884 -122.309349 15,825 180 293 -2304
2018-12-12 02:17:19 GMT 46.286331 -122.309349 15,975 179 294 -2304
2018-12-12 02:17:08 GMT 46.301506 -122.309349 16,400 180 293 -2304
2018-12-12 02:17:00 GMT 46.311794 -122.309418 16,700 179 293 -2304
2018-12-12 02:16:57 GMT 46.321838 -122.309448 17,000 179 293 -2368
2018-12-12 02:16:53 GMT 46.321838 -122.309448 16,975 179 293 -2304
2018-12-12 02:16:50 GMT 46.326187 -122.309448 17,100 179 293 -1856
2018-12-12 02:16:44 GMT 46.333534 -122.309486 17,225 179 294 -960
2018-12-12 02:16:39 GMT 46.339912 -122.309555 17,275 179 292 128
2018-12-12 02:16:34 GMT 46.347244 -122.309517 17,225 181 290 448
2018-12-12 02:16:28 GMT 46.354248 -122.309517 17,175 180 289 512
2018-12-12 02:16:24 GMT 46.361160 -122.309517 17,150 180 288 640
2018-12-12 02:16:21 GMT 46.365921 -122.309517 17,100 180 287 384
2018-12-12 02:16:18 GMT 46.369125 -122.309517 17,100 179 287 256
2018-12-12 02:16:15 GMT 46.373665 -122.309555 17,075 179 287 576
2018-12-12 02:16:10 GMT 46.380249 -122.309586 17,000 179 286 1344
2018-12-12 02:16:06 GMT 46.383205 -122.309624 16,950 179 286 1600
2018-12-12 02:16:03 GMT 46.389446 -122.309624 16,775 179 285 1984
2018-12-12 02:15:59 GMT 46.393478 -122.309654 16,675 180 286 2432
2018-12-12 02:15:49 GMT 46.407852 -122.309654 16,250 180 289 2176
2018-12-12 02:15:43 GMT 46.415863 -122.309654 16,050 180 289 1920
2018-12-12 02:15:35 GMT 46.425430 -122.309654 15,825 181 289 1728
2018-12-12 02:15:31 GMT 46.432133 -122.309624 15,700 181 287 1600
2018-12-12 02:15:26 GMT 46.437347 -122.309624 15,600 181 286 1536
2018-12-12 02:15:21 GMT 46.443771 -122.309624 15,475 181 284 1536
2018-12-12 02:15:16 GMT 46.450287 -122.309586 15,350 181 283 1728
2018-12-12 02:15:11 GMT 46.458160 -122.309517 15,150 181 282 2304
2018-12-12 02:15:06 GMT 46.464935 -122.309517 14,950 181 282 2432
2018-12-12 02:15:03 GMT 46.467041 -122.309517 14,875 181 282 2496
2018-12-12 02:14:57 GMT 46.476685 -122.309486 14,600 179 285 2368
2018-12-12 02:14:54 GMT 46.479336 -122.309486 14,500 180 284 2496
2018-12-12 02:14:48 GMT 46.487160 -122.309486 14,275 180 284 2432
2018-12-12 02:14:42 GMT 46.494781 -122.309517 14,050 179 285 2304
2018-12-12 02:14:38 GMT 46.500378 -122.309486 13,875 181 286 2624
2018-12-12 02:14:31 GMT 46.509018 -122.309448 13,625 181 287 2816
2018-12-12 02:14:27 GMT 46.516068 -122.309448 13,325 180 288 2944
2018-12-12 02:14:22 GMT 46.522724 -122.309486 13,100 179 290 2880
2018-12-12 02:14:14 GMT 46.532730 -122.309586 12,675 179 293 3072
2018-12-12 02:14:11 GMT 46.536530 -122.309586 12,550 179 295 2752
2018-12-12 02:14:06 GMT 46.543346 -122.309624 12,350 180 296 2048
2018-12-12 02:14:00 GMT 46.551445 -122.309555 12,125 181 296 2048
2018-12-12 02:12:46 GMT 46.654312 -122.309586 11,250 181 297 0
2018-12-12 02:12:27 GMT 46.678162 -122.309486 11,250 180 296 64
2018-12-12 02:12:08 GMT 46.706268 -122.309448 11,250 180 295 64
2018-12-12 02:12:05 GMT 46.709015 -122.309448 11,250 180 299 128
2018-12-12 02:11:53 GMT 46.726994 -122.309486 11,250 180 299 128
2018-12-12 02:11:46 GMT 46.735233 -122.309486 11,250 180 300 -192
2018-12-12 02:11:43 GMT 46.739502 -122.309517 11,250 180 296 64
2018-12-12 02:11:31 GMT 46.755524 -122.309448 11,250 181 298 64
2018-12-12 02:11:22 GMT 46.768204 -122.309448 11,250 180 297 -64
2018-12-12 02:11:12 GMT 46.782719 -122.309418 11,250 180 295 64
2018-12-12 02:11:00 GMT 46.799664 -122.309486 11,250 180 295 -128
2018-12-12 02:10:50 GMT 46.812233 -122.309486 11,250 179 296 64
2018-12-12 02:10:38 GMT 46.827641 -122.309486 11,250 180 298 -64
2018-12-12 02:10:29 GMT 46.842537 -122.309555 11,250 180 299 64
2018-12-12 02:10:17 GMT 46.870239 -122.309555 11,250 180 297 64
2018-12-12 02:10:07 GMT 46.871586 -122.309525 11,250 181 290 0
2018-12-12 02:09:57 GMT 46.886215 -122.309555 11,250 179 296 0
2018-12-12 02:09:45 GMT 46.900452 -122.309624 11,250 179 295 0
2018-12-12 02:09:35 GMT 46.915146 -122.309692 11,250 179 294 -64
2018-12-12 02:09:24 GMT 46.929840 -122.309761 11,250 179 294 -64
2018-12-12 02:09:17 GMT 46.939365 -122.309807 11,250 181 293 0
2018-12-12 02:09:12 GMT 46.946548 -122.309692 11,250 181 292 0
2018-12-12 02:09:06 GMT 46.955750 -122.309555 11,250 181 291 0
2018-12-12 02:09:02 GMT 46.959045 -122.309486 11,250 181 290 0
2018-12-12 02:08:55 GMT 46.969952 -122.309242 11,250 181 290 -64
2018-12-12 02:08:52 GMT 46.972698 -122.309174 11,250 181 290 0
2018-12-12 02:08:42 GMT 46.987686 -122.308891 11,250 181 290 -64
2018-12-12 02:08:30 GMT 47.002213 -122.308540 11,250 181 290 0
2018-12-12 02:08:23 GMT 47.013199 -122.308319 11,250 181 290 0
2018-12-12 02:08:15 GMT 47.022041 -122.308113 11,250 181 291 -64
2018-12-12 02:08:12 GMT 47.027954 -122.308044 11,250 181 291 64
2018-12-12 02:08:09 GMT 47.030823 -122.307907 11,250 181 291 64
2018-12-12 02:07:59 GMT 47.044968 -122.307632 11,250 181 294 0
2018-12-12 02:07:51 GMT 47.056168 -122.307411 11,250 181 296 0
2018-12-12 02:07:47 GMT 47.059662 -122.307358 11,250 181 296 0
2018-12-12 02:07:40 GMT 47.071243 -122.307083 11,250 181 297 64
2018-12-12 02:07:36 GMT 47.075394 -122.306992 11,250 181 297 64
2018-12-12 02:07:33 GMT 47.080078 -122.306877 11,250 181 306 384
2018-12-12 02:07:26 GMT 47.089870 -122.306709 11,225 181 306 384
2018-12-12 02:07:22 GMT 47.095779 -122.306602 10,875 181 287 3072
2018-12-12 02:07:16 GMT 47.105209 -122.306465 11,100 181 321 704
2018-12-12 02:07:12 GMT 47.109653 -122.306427 11,050 181 323 832
2018-12-12 02:07:08 GMT 47.120968 -122.306145 10,975 182 319 768
2018-12-12 02:07:05 GMT 47.120968 -122.306145 10,950 182 319 768
2018-12-12 02:06:57 GMT 47.133545 -122.305847 10,850 181 312 832
2018-12-12 02:06:52 GMT 47.140705 -122.305717 8,625 181 287 3072
2018-12-12 02:06:46 GMT 47.148621 -122.305580 10,700 182 299 896
2018-12-12 02:06:43 GMT 47.152130 -122.305504 10,700 182 299 896
2018-12-12 02:06:36 GMT 47.162109 -122.305298 10,600 182 292 704
2018-12-12 02:06:32 GMT 47.166679 -122.305161 10,500 182 286 1472
2018-12-12 02:06:26 GMT 47.175934 -122.304886 10,350 181 284 1920
2018-12-12 02:06:22 GMT 47.180832 -122.304802 10,200 181 284 2752
2018-12-12 02:06:13 GMT 47.193588 -122.304520 9,725 181 286 3328
2018-12-12 02:06:10 GMT 47.196148 -122.304520 9,600 181 286 3392
2018-12-12 02:06:04 GMT 47.204716 -122.304382 8,875 181 287 3008
2018-12-12 02:06:00 GMT 47.210579 -122.304237 9,025 181 287 3136
2018-12-12 02:05:51 GMT 47.221344 -122.303993 8,675 181 287 3072
2018-12-12 02:05:48 GMT 47.225338 -122.303886 8,475 181 288 3072
2018-12-12 02:05:42 GMT 47.234463 -122.303749 8,125 181 287 2880
2018-12-12 02:05:38 GMT 47.238697 -122.303680 7,975 181 286 2752
2018-12-12 02:05:32 GMT 47.247169 -122.303535 7,650 181 282 2240
2018-12-12 02:05:28 GMT 47.251602 -122.303444 7,575 181 280 2176
2018-12-12 02:05:25 GMT 47.255722 -122.303307 7,500 181 278 2240
2018-12-12 02:05:21 GMT 47.261600 -122.303185 7,325 182 275 2432
2018-12-12 02:05:18 GMT 47.265186 -122.303116 7,200 182 274 2752
2018-12-12 02:05:14 GMT 47.270920 -122.302963 7,000 181 274 3008
2018-12-12 02:05:10 GMT 47.275799 -122.302902 6,800 181 273 3072
2018-12-12 02:05:07 GMT 47.279022 -122.302826 6,675 181 273 3008
2018-12-12 02:05:03 GMT 47.283142 -122.302689 6,500 182 272 3136
2018-12-12 02:04:57 GMT 47.291107 -122.302551 6,100 181 271 3008
2018-12-12 02:04:54 GMT 47.296188 -122.302414 5,975 181 270 3008
2018-12-12 02:04:49 GMT 47.301682 -122.302277 5,750 181 269 2944
2018-12-12 02:04:46 GMT 47.304703 -122.302277 5,575 181 269 3008
2018-12-12 02:04:42 GMT 47.309647 -122.302139 5,425 181 269 3072
2018-12-12 02:04:36 GMT 47.316856 -122.301987 5,125 181 267 2688
2018-12-12 02:04:33 GMT 47.322052 -122.301865 4,975 181 267 2688
2018-12-12 02:04:27 GMT 47.328323 -122.301727 4,725 182 264 2688
2018-12-12 02:04:24 GMT 47.332352 -122.301659 4,575 182 262 2432
2018-12-12 02:04:21 GMT 47.335480 -122.301567 4,500 182 260 2112
2018-12-12 02:04:17 GMT 47.340958 -122.301315 4,225 183 249 1664
2018-12-12 02:04:12 GMT 47.347256 -122.301003 4,200 182 247 1792
2018-12-12 02:04:04 GMT 47.354691 -122.300629 4,000 182 242 2368
2018-12-12 02:04:00 GMT 47.359825 -122.300369 3,825 182 236 1600
2018-12-12 02:03:55 GMT 47.366089 -122.300011 3,675 185 226 1216
2018-12-12 02:03:50 GMT 47.370163 -122.299461 3,600 185 219 1024
2018-12-12 02:03:43 GMT 47.377304 -122.298843 3,500 182 211 1216
2018-12-12 02:03:39 GMT 47.380913 -122.299026 3,350 175 205 2496
2018-12-12 02:03:31 GMT 47.388874 -122.300224 3,100 173 205 2688
2018-12-12 02:03:28 GMT 47.391266 -122.300629 2,925 173 200 1536
2018-12-12 02:03:23 GMT 47.395660 -122.301315 2,750 174 193 1344
2018-12-12 02:03:19 GMT 47.399963 -122.301933 2,700 173 187 1344
2018-12-12 02:03:13 GMT 47.405319 -122.302963 2,575 171 180 1024
2018-12-12 02:03:07 GMT 47.409210 -122.303925 2,525 170 171 896
2018-12-12 02:03:01 GMT 47.413742 -122.305023 2,400 170 160 1216
2018-12-12 02:02:58 GMT 47.416759 -122.305717 2,325 172 152 1280
2018-12-12 02:02:51 GMT 47.420975 -122.306534 1,850 174 141 1472
2018-12-12 02:02:47 GMT 47.423355 -122.306877 1,950 174 139 1792
2018-12-12 02:02:41 GMT 47.427658 -122.307495 1,850 175 136 2816
2018-12-12 02:02:37 GMT 47.430351 -122.307762 1,625 177 138 3200
2018-12-12 02:02:28 GMT 47.435165 -122.307907 1,225 180 146 3200
2018-12-12 02:02:09 GMT 47.448879 -122.307907 650 270 11 -64
2018-12-12 02:02:04 GMT 47.455585 -122.307831 650 270 11 -64
2018-12-12 02:01:56 GMT 47.455585 -122.307831 675 182 91 -128
2018-12-12 02:01:45 GMT 47.458809 -122.307816 0 180 44 -64
2018-12-12 02:01:41 GMT 47.459377 -122.307816 0 180 15
2018-12-12 02:01:35 GMT 47.459728 -122.307816 0 182 11
2018-12-12 02:01:24 GMT 47.460091 -122.307617 0 258 8
2018-12-12 02:01:19 GMT 47.460114 -122.307304 0 270 12
2018-12-12 02:01:10 GMT 47.460079 -122.306671 0 278 10
2018-12-12 02:00:56 GMT 47.460018 -122.306427 0 292 0
2018-12-12 02:00:32 GMT 47.460018 -122.306404 0 292 0
2018-12-12 02:00:28 GMT 47.460018 -122.306427 0 292 0
2018-12-12 02:00:19 GMT 47.460022 -122.306412 0 292 0
2018-12-12 02:00:10 GMT 47.460018 -122.306427 0 292 0
2018-12-12 01:59:57 GMT 47.459927 -122.306252 0 345 5
2018-12-12 01:59:49 GMT 47.459747 -122.306206 0 354 5
2018-12-12 01:59:01 GMT 47.459576 -122.306198 0 0 0
2018-12-12 01:57:48 GMT 47.459576 -122.306190 0 0 0
2018-12-12 01:57:24 GMT 47.459438 -122.306190 0 0 6
2018-12-12 01:57:14 GMT 47.459133 -122.306198 0 0 8
2018-12-12 01:57:11 GMT 47.459061 -122.306206 0 0 9
2018-12-12 01:57:07 GMT 47.458912 -122.306198 0 0 8
2018-12-12 01:57:00 GMT 47.458645 -122.306198 0 0 9
2018-12-12 01:56:57 GMT 47.458492 -122.306213 0 2 9
2018-12-12 01:56:47 GMT 47.458076 -122.306213 0 0 10
2018-12-12 01:56:36 GMT 47.457516 -122.306213 0 0 13
2018-12-12 01:56:25 GMT 47.456863 -122.306213 0 0 15
2018-12-12 01:56:13 GMT 47.455959 -122.306229 0 0 20
2018-12-12 01:56:03 GMT 47.455009 -122.306229 0 0 20
2018-12-12 01:55:52 GMT 47.454014 -122.306244 0 0 23
2018-12-12 01:55:40 GMT 47.452675 -122.306259 0 0 24
2018-12-12 01:55:26 GMT 47.450993 -122.306274 0 0 24
2018-12-12 01:55:18 GMT 47.450260 -122.306274 0 2 22
2018-12-12 01:55:07 GMT 47.449219 -122.306274 0 0 22
2018-12-12 01:54:54 GMT 47.447800 -122.306282 0 0 22
2018-12-12 01:54:39 GMT 47.446388 -122.306297 0 0 20
2018-12-12 01:54:29 GMT 47.445503 -122.306320 0 2 19
2018-12-12 01:54:26 GMT 47.445168 -122.306320 0 0 18
2018-12-12 01:54:15 GMT 47.444378 -122.306320 0 0 15
2018-12-12 01:54:03 GMT 47.443726 -122.306328 0 0 12
2018-12-12 01:53:51 GMT 47.443165 -122.306343 0 0 9
2018-12-12 01:53:44 GMT 47.442902 -122.306343 0 0 6
2018-12-12 01:53:28 GMT 47.442524 -122.306343 0 2 7
2018-12-12 01:53:21 GMT 47.442329 -122.306351 0 0 7
2018-12-12 01:53:13 GMT 47.442009 -122.306343 0 0 8
2018-12-12 01:52:55 GMT 47.441162 -122.306351 0 0 14

Making use of Plane Finder data

You are free to use the raw flight data, aircraft information and images provided in this report for your own purposes provided the data is correctly attributed to Plane Finder. We ask that you please credit Plane Finder and link to planefinder.net in close proximity to the content.

Optionally one of the following logos (no smaller then 150x24px) can be used and must link to planefinder.net

Embedding the Plane Finder map

You are welcome to embed the Plane Finder playback map on your website to offer visitors a more interactive experience. We suggest using the following HTML code:

<iframe src="//planefinder.net/data/report/CP5759-N631CZ-7700-squawk-2018-12-12/map" width="800" height="600" seamless="seamless"></iframe>

Where our data comes from

Plane Finder has a global network of data feeds and antenna radars that receive data broadcast directly from aircraft. The primary technologies used are ADS-B and MLAT. We also show feeds from the FAA and a FLARM glider feed.

Click here to find out more about the Plane Finder network.

How we collect our data